sensor_id;sensor_type;location;lat;lon;timestamp;temperature;humidity
24560;DHT22;12727;49.934;8.656;2022-11-03T00:01:45;5.80;99.90
24560;DHT22;12727;49.934;8.656;2022-11-03T00:04:13;5.70;99.90
24560;DHT22;12727;49.934;8.656;2022-11-03T00:06:40;5.70;99.90
24560;DHT22;12727;49.934;8.656;2022-11-03T00:09:08;5.70;99.90
24560;DHT22;12727;49.934;8.656;2022-11-03T00:11:35;5.70;99.90
24560;DHT22;12727;49.934;8.656;2022-11-03T00:14:02;5.70;99.90
24560;DHT22;12727;49.934;8.656;2022-11-03T00:16:27;5.90;99.90
24560;DHT22;12727;49.934;8.656;2022-11-03T00:18:53;5.80;99.90
24560;DHT22;12727;49.934;8.656;2022-11-03T00:21:19;5.70;99.90
24560;DHT22;12727;49.934;8.656;2022-11-03T00:23:45;5.80;99.90
24560;DHT22;12727;49.934;8.656;2022-11-03T00:28:43;5.80;99.90
24560;DHT22;12727;49.934;8.656;2022-11-03T00:31:29;5.80;99.90
24560;DHT22;12727;49.934;8.656;2022-11-03T00:33:56;5.70;99.90
24560;DHT22;12727;49.934;8.656;2022-11-03T00:36:24;5.50;99.90
24560;DHT22;12727;49.934;8.656;2022-11-03T00:38:51;5.50;99.90
24560;DHT22;12727;49.934;8.656;2022-11-03T00:41:18;5.50;99.90
24560;DHT22;12727;49.934;8.656;2022-11-03T00:43:47;5.60;99.90
24560;DHT22;12727;49.934;8.656;2022-11-03T00:46:13;5.60;99.90
24560;DHT22;12727;49.934;8.656;2022-11-03T00:48:39;5.70;99.90
24560;DHT22;12727;49.934;8.656;2022-11-03T00:51:26;5.70;99.90
24560;DHT22;12727;49.934;8.656;2022-11-03T00:53:58;5.50;99.90
24560;DHT22;12727;49.934;8.656;2022-11-03T00:56:29;5.50;99.90
24560;DHT22;12727;49.934;8.656;2022-11-03T00:58:56;5.50;99.90
24560;DHT22;12727;49.934;8.656;2022-11-03T01:03:54;6.10;99.90
24560;DHT22;12727;49.934;8.656;2022-11-03T01:06:41;6.50;99.90
24560;DHT22;12727;49.934;8.656;2022-11-03T01:11:59;6.30;99.90
24560;DHT22;12727;49.934;8.656;2022-11-03T01:14:27;6.40;99.90
24560;DHT22;12727;49.934;8.656;2022-11-03T01:16:54;6.30;99.90
24560;DHT22;12727;49.934;8.656;2022-11-03T01:19:20;6.40;99.90
24560;DHT22;12727;49.934;8.656;2022-11-03T01:21:45;6.20;99.90
24560;DHT22;12727;49.934;8.656;2022-11-03T01:24:11;5.90;99.90
24560;DHT22;12727;49.934;8.656;2022-11-03T01:26:37;5.70;99.90
24560;DHT22;12727;49.934;8.656;2022-11-03T01:29:02;5.60;99.90
24560;DHT22;12727;49.934;8.656;2022-11-03T01:31:29;5.50;99.90
24560;DHT22;12727;49.934;8.656;2022-11-03T01:33:56;5.40;99.90
24560;DHT22;12727;49.934;8.656;2022-11-03T01:36:22;5.30;99.90
24560;DHT22;12727;49.934;8.656;2022-11-03T01:38:48;5.20;99.90
24560;DHT22;12727;49.934;8.656;2022-11-03T01:41:19;5.20;99.90
24560;DHT22;12727;49.934;8.656;2022-11-03T01:43:51;5.20;99.90
24560;DHT22;12727;49.934;8.656;2022-11-03T01:46:29;5.20;99.90
24560;DHT22;12727;49.934;8.656;2022-11-03T01:49:36;5.20;99.90
24560;DHT22;12727;49.934;8.656;2022-11-03T01:52:00;5.20;99.90
24560;DHT22;12727;49.934;8.656;2022-11-03T01:54:27;5.60;99.90
24560;DHT22;12727;49.934;8.656;2022-11-03T01:56:54;5.90;99.90
24560;DHT22;12727;49.934;8.656;2022-11-03T01:59:23;5.90;99.90
24560;DHT22;12727;49.934;8.656;2022-11-03T02:01:49;5.80;99.90
24560;DHT22;12727;49.934;8.656;2022-11-03T02:04:25;5.90;99.90
24560;DHT22;12727;49.934;8.656;2022-11-03T02:07:11;5.80;99.90
24560;DHT22;12727;49.934;8.656;2022-11-03T02:09:37;5.60;99.90
24560;DHT22;12727;49.934;8.656;2022-11-03T02:12:04;5.60;99.90
24560;DHT22;12727;49.934;8.656;2022-11-03T02:14:44;5.60;99.90
24560;DHT22;12727;49.934;8.656;2022-11-03T02:17:13;5.80;99.90
24560;DHT22;12727;49.934;8.656;2022-11-03T02:19:46;5.60;99.90
24560;DHT22;12727;49.934;8.656;2022-11-03T02:27:52;5.20;99.90
24560;DHT22;12727;49.934;8.656;2022-11-03T02:30:17;5.30;99.90
24560;DHT22;12727;49.934;8.656;2022-11-03T02:32:54;5.10;99.90
24560;DHT22;12727;49.934;8.656;2022-11-03T02:35:32;5.00;99.90
24560;DHT22;12727;49.934;8.656;2022-11-03T02:38:01;5.20;99.90
24560;DHT22;12727;49.934;8.656;2022-11-03T02:40:35;5.60;99.90
24560;DHT22;12727;49.934;8.656;2022-11-03T02:43:02;5.90;99.90
24560;DHT22;12727;49.934;8.656;2022-11-03T02:45:30;5.90;99.90
24560;DHT22;12727;49.934;8.656;2022-11-03T02:47:58;6.10;99.90
24560;DHT22;12727;49.934;8.656;2022-11-03T02:50:30;6.10;99.90
24560;DHT22;12727;49.934;8.656;2022-11-03T02:52:56;6.20;99.90
24560;DHT22;12727;49.934;8.656;2022-11-03T02:55:37;5.90;99.90
24560;DHT22;12727;49.934;8.656;2022-11-03T02:58:27;5.60;99.90
24560;DHT22;12727;49.934;8.656;2022-11-03T03:01:09;5.70;99.90
24560;DHT22;12727;49.934;8.656;2022-11-03T03:03:54;5.90;99.90
24560;DHT22;12727;49.934;8.656;2022-11-03T03:06:24;6.00;99.90
24560;DHT22;12727;49.934;8.656;2022-11-03T03:08:53;6.00;99.90
24560;DHT22;12727;49.934;8.656;2022-11-03T03:11:21;6.00;99.90
24560;DHT22;12727;49.934;8.656;2022-11-03T03:14:14;5.70;99.90
24560;DHT22;12727;49.934;8.656;2022-11-03T03:22:43;5.10;99.90
24560;DHT22;12727;49.934;8.656;2022-11-03T03:25:16;4.80;99.90
24560;DHT22;12727;49.934;8.656;2022-11-03T03:27:47;4.70;99.90
24560;DHT22;12727;49.934;8.656;2022-11-03T03:30:15;4.80;99.90
24560;DHT22;12727;49.934;8.656;2022-11-03T03:32:47;4.70;99.90
24560;DHT22;12727;49.934;8.656;2022-11-03T03:35:21;5.00;99.90
24560;DHT22;12727;49.934;8.656;2022-11-03T03:37:50;4.90;99.90
24560;DHT22;12727;49.934;8.656;2022-11-03T03:40:21;5.10;99.90
24560;DHT22;12727;49.934;8.656;2022-11-03T03:42:50;5.20;99.90
24560;DHT22;12727;49.934;8.656;2022-11-03T03:45:17;5.20;99.90
24560;DHT22;12727;49.934;8.656;2022-11-03T03:47:44;5.20;99.90
24560;DHT22;12727;49.934;8.656;2022-11-03T03:50:10;5.30;99.90
24560;DHT22;12727;49.934;8.656;2022-11-03T03:52:36;5.10;99.90
24560;DHT22;12727;49.934;8.656;2022-11-03T03:55:03;5.10;99.90
24560;DHT22;12727;49.934;8.656;2022-11-03T03:57:30;4.90;99.90
24560;DHT22;12727;49.934;8.656;2022-11-03T03:59:56;4.70;99.90
24560;DHT22;12727;49.934;8.656;2022-11-03T04:02:22;4.70;99.90
24560;DHT22;12727;49.934;8.656;2022-11-03T04:04:48;4.60;99.90
24560;DHT22;12727;49.934;8.656;2022-11-03T04:07:14;4.80;99.90
24560;DHT22;12727;49.934;8.656;2022-11-03T04:09:58;5.00;99.90
24560;DHT22;12727;49.934;8.656;2022-11-03T04:12:23;5.40;99.90
24560;DHT22;12727;49.934;8.656;2022-11-03T04:15:13;5.70;99.90
24560;DHT22;12727;49.934;8.656;2022-11-03T04:17:57;5.70;99.90
24560;DHT22;12727;49.934;8.656;2022-11-03T04:20:41;5.70;99.90
24560;DHT22;12727;49.934;8.656;2022-11-03T04:23:25;5.60;99.90
24560;DHT22;12727;49.934;8.656;2022-11-03T04:25:53;5.60;99.90
24560;DHT22;12727;49.934;8.656;2022-11-03T04:28:20;5.40;99.90
24560;DHT22;12727;49.934;8.656;2022-11-03T04:30:46;5.10;99.90
24560;DHT22;12727;49.934;8.656;2022-11-03T04:33:17;5.10;99.90
24560;DHT22;12727;49.934;8.656;2022-11-03T04:35:43;4.80;99.90
24560;DHT22;12727;49.934;8.656;2022-11-03T04:38:20;4.80;99.90
24560;DHT22;12727;49.934;8.656;2022-11-03T04:40:54;4.70;99.90
24560;DHT22;12727;49.934;8.656;2022-11-03T04:43:43;4.60;99.90
24560;DHT22;12727;49.934;8.656;2022-11-03T04:46:12;4.70;99.90
24560;DHT22;12727;49.934;8.656;2022-11-03T04:48:38;4.70;99.90
24560;DHT22;12727;49.934;8.656;2022-11-03T04:51:19;5.00;99.90
24560;DHT22;12727;49.934;8.656;2022-11-03T04:53:57;5.00;99.90
24560;DHT22;12727;49.934;8.656;2022-11-03T04:56:24;5.00;99.90
24560;DHT22;12727;49.934;8.656;2022-11-03T04:58:50;4.90;99.90
24560;DHT22;12727;49.934;8.656;2022-11-03T05:01:21;4.80;99.90
24560;DHT22;12727;49.934;8.656;2022-11-03T05:03:49;4.70;99.90
24560;DHT22;12727;49.934;8.656;2022-11-03T05:06:24;4.90;99.90
24560;DHT22;12727;49.934;8.656;2022-11-03T05:09:06;4.80;99.90
24560;DHT22;12727;49.934;8.656;2022-11-03T05:11:41;4.80;99.90
24560;DHT22;12727;49.934;8.656;2022-11-03T05:14:28;5.10;99.90
24560;DHT22;12727;49.934;8.656;2022-11-03T05:16:56;5.30;99.90
24560;DHT22;12727;49.934;8.656;2022-11-03T05:19:30;5.30;99.90
24560;DHT22;12727;49.934;8.656;2022-11-03T05:21:57;5.30;99.90
24560;DHT22;12727;49.934;8.656;2022-11-03T05:24:23;5.50;99.90
24560;DHT22;12727;49.934;8.656;2022-11-03T05:26:53;5.30;99.90
24560;DHT22;12727;49.934;8.656;2022-11-03T05:29:22;5.00;99.90
24560;DHT22;12727;49.934;8.656;2022-11-03T05:31:52;4.80;99.90
24560;DHT22;12727;49.934;8.656;2022-11-03T05:34:37;4.60;99.90
24560;DHT22;12727;49.934;8.656;2022-11-03T05:39:48;4.80;99.90
24560;DHT22;12727;49.934;8.656;2022-11-03T05:42:35;4.90;99.90
24560;DHT22;12727;49.934;8.656;2022-11-03T05:47:39;4.90;99.90
24560;DHT22;12727;49.934;8.656;2022-11-03T05:50:26;4.70;99.90
24560;DHT22;12727;49.934;8.656;2022-11-03T05:52:59;4.50;99.90
24560;DHT22;12727;49.934;8.656;2022-11-03T05:55:34;4.40;99.90
24560;DHT22;12727;49.934;8.656;2022-11-03T06:00:45;4.20;99.90
24560;DHT22;12727;49.934;8.656;2022-11-03T06:03:15;4.00;99.90
24560;DHT22;12727;49.934;8.656;2022-11-03T06:05:45;3.90;99.90
24560;DHT22;12727;49.934;8.656;2022-11-03T06:08:21;4.00;99.90
24560;DHT22;12727;49.934;8.656;2022-11-03T06:10:50;4.00;99.90
24560;DHT22;12727;49.934;8.656;2022-11-03T06:13:21;4.00;99.90
24560;DHT22;12727;49.934;8.656;2022-11-03T06:15:52;4.00;99.90
24560;DHT22;12727;49.934;8.656;2022-11-03T06:18:21;4.00;99.90
24560;DHT22;12727;49.934;8.656;2022-11-03T06:20:53;3.90;99.90
24560;DHT22;12727;49.934;8.656;2022-11-03T06:23:20;3.90;99.90
24560;DHT22;12727;49.934;8.656;2022-11-03T06:25:47;3.90;99.90
24560;DHT22;12727;49.934;8.656;2022-11-03T06:30:45;4.50;99.90
24560;DHT22;12727;49.934;8.656;2022-11-03T06:33:24;4.80;99.90
24560;DHT22;12727;49.934;8.656;2022-11-03T06:35:53;4.60;99.90
24560;DHT22;12727;49.934;8.656;2022-11-03T06:38:30;4.50;99.90
24560;DHT22;12727;49.934;8.656;2022-11-03T06:40:58;4.70;99.90
24560;DHT22;12727;49.934;8.656;2022-11-03T06:43:25;4.90;99.90
24560;DHT22;12727;49.934;8.656;2022-11-03T06:46:00;4.90;99.90
24560;DHT22;12727;49.934;8.656;2022-11-03T06:48:32;4.70;99.90
24560;DHT22;12727;49.934;8.656;2022-11-03T06:51:00;4.80;99.90
24560;DHT22;12727;49.934;8.656;2022-11-03T06:53:31;4.70;99.90
24560;DHT22;12727;49.934;8.656;2022-11-03T06:55:58;4.80;99.90
24560;DHT22;12727;49.934;8.656;2022-11-03T06:58:33;4.90;99.90
24560;DHT22;12727;49.934;8.656;2022-11-03T07:01:08;5.40;99.90
24560;DHT22;12727;49.934;8.656;2022-11-03T07:03:36;5.60;99.90
24560;DHT22;12727;49.934;8.656;2022-11-03T07:06:21;6.00;99.90
24560;DHT22;12727;49.934;8.656;2022-11-03T07:09:00;6.30;99.90
24560;DHT22;12727;49.934;8.656;2022-11-03T07:11:28;6.60;99.90
24560;DHT22;12727;49.934;8.656;2022-11-03T07:14:18;6.80;99.90
24560;DHT22;12727;49.934;8.656;2022-11-03T07:17:02;6.90;99.90
24560;DHT22;12727;49.934;8.656;2022-11-03T07:19:33;6.80;99.90
24560;DHT22;12727;49.934;8.656;2022-11-03T07:22:22;6.90;99.90
24560;DHT22;12727;49.934;8.656;2022-11-03T07:24:52;7.50;99.90
24560;DHT22;12727;49.934;8.656;2022-11-03T07:27:22;8.10;99.90
24560;DHT22;12727;49.934;8.656;2022-11-03T07:29:50;8.60;99.90
24560;DHT22;12727;49.934;8.656;2022-11-03T07:32:22;8.30;99.90
24560;DHT22;12727;49.934;8.656;2022-11-03T07:34:50;7.90;99.90
24560;DHT22;12727;49.934;8.656;2022-11-03T07:37:23;7.80;99.90
24560;DHT22;12727;49.934;8.656;2022-11-03T07:39:49;8.00;99.90
24560;DHT22;12727;49.934;8.656;2022-11-03T07:42:21;8.10;99.90
24560;DHT22;12727;49.934;8.656;2022-11-03T07:44:47;8.20;99.90
24560;DHT22;12727;49.934;8.656;2022-11-03T07:47:24;8.40;99.90
24560;DHT22;12727;49.934;8.656;2022-11-03T07:49:50;8.90;99.90
24560;DHT22;12727;49.934;8.656;2022-11-03T07:52:20;9.50;99.90
24560;DHT22;12727;49.934;8.656;2022-11-03T07:54:47;10.00;99.90
24560;DHT22;12727;49.934;8.656;2022-11-03T07:57:18;10.50;99.90
24560;DHT22;12727;49.934;8.656;2022-11-03T07:59:49;10.60;99.90
24560;DHT22;12727;49.934;8.656;2022-11-03T08:02:33;10.70;99.90
24560;DHT22;12727;49.934;8.656;2022-11-03T08:05:01;10.80;99.90
24560;DHT22;12727;49.934;8.656;2022-11-03T08:07:27;11.00;99.90
24560;DHT22;12727;49.934;8.656;2022-11-03T08:09:53;11.40;99.90
24560;DHT22;12727;49.934;8.656;2022-11-03T08:12:19;11.40;99.90
24560;DHT22;12727;49.934;8.656;2022-11-03T08:14:45;11.30;99.90
24560;DHT22;12727;49.934;8.656;2022-11-03T08:17:11;11.30;99.90
24560;DHT22;12727;49.934;8.656;2022-11-03T08:19:36;11.00;99.90
24560;DHT22;12727;49.934;8.656;2022-11-03T08:22:02;10.90;99.90
24560;DHT22;12727;49.934;8.656;2022-11-03T08:24:28;11.10;99.90
24560;DHT22;12727;49.934;8.656;2022-11-03T08:26:53;11.30;99.90
24560;DHT22;12727;49.934;8.656;2022-11-03T08:29:19;11.40;99.90
24560;DHT22;12727;49.934;8.656;2022-11-03T08:31:46;11.50;99.90
24560;DHT22;12727;49.934;8.656;2022-11-03T08:34:11;11.80;99.90
24560;DHT22;12727;49.934;8.656;2022-11-03T08:36:37;12.60;99.90
24560;DHT22;12727;49.934;8.656;2022-11-03T08:39:03;13.20;99.90
24560;DHT22;12727;49.934;8.656;2022-11-03T08:41:30;13.20;99.90
24560;DHT22;12727;49.934;8.656;2022-11-03T08:43:55;14.00;99.90
24560;DHT22;12727;49.934;8.656;2022-11-03T08:46:21;14.30;99.90
24560;DHT22;12727;49.934;8.656;2022-11-03T08:48:48;14.10;99.90
24560;DHT22;12727;49.934;8.656;2022-11-03T08:51:14;14.60;99.90
24560;DHT22;12727;49.934;8.656;2022-11-03T08:53:41;15.60;99.90
24560;DHT22;12727;49.934;8.656;2022-11-03T08:56:11;16.30;99.90
24560;DHT22;12727;49.934;8.656;2022-11-03T08:58:36;16.80;99.90
24560;DHT22;12727;49.934;8.656;2022-11-03T09:01:03;17.30;99.90
24560;DHT22;12727;49.934;8.656;2022-11-03T09:03:29;17.80;98.10
24560;DHT22;12727;49.934;8.656;2022-11-03T09:05:54;17.80;97.30
24560;DHT22;12727;49.934;8.656;2022-11-03T09:08:20;17.20;96.40
24560;DHT22;12727;49.934;8.656;2022-11-03T09:10:46;17.20;97.20
24560;DHT22;12727;49.934;8.656;2022-11-03T09:13:11;17.50;96.90
24560;DHT22;12727;49.934;8.656;2022-11-03T09:15:37;17.80;95.40
24560;DHT22;12727;49.934;8.656;2022-11-03T09:18:03;18.00;94.50
24560;DHT22;12727;49.934;8.656;2022-11-03T09:20:29;17.90;93.80
24560;DHT22;12727;49.934;8.656;2022-11-03T09:22:55;17.00;94.40
24560;DHT22;12727;49.934;8.656;2022-11-03T09:25:21;16.40;95.40
24560;DHT22;12727;49.934;8.656;2022-11-03T09:27:46;15.70;96.00
24560;DHT22;12727;49.934;8.656;2022-11-03T09:30:13;15.20;97.30
24560;DHT22;12727;49.934;8.656;2022-11-03T09:32:39;14.70;98.20
24560;DHT22;12727;49.934;8.656;2022-11-03T09:35:05;14.20;98.90
24560;DHT22;12727;49.934;8.656;2022-11-03T09:37:32;14.00;99.50
24560;DHT22;12727;49.934;8.656;2022-11-03T09:39:57;13.70;99.90
24560;DHT22;12727;49.934;8.656;2022-11-03T09:42:24;13.40;99.90
24560;DHT22;12727;49.934;8.656;2022-11-03T09:44:51;13.20;99.90
24560;DHT22;12727;49.934;8.656;2022-11-03T09:47:22;12.90;99.90
24560;DHT22;12727;49.934;8.656;2022-11-03T09:49:48;12.80;99.90
24560;DHT22;12727;49.934;8.656;2022-11-03T09:52:19;12.70;99.90
24560;DHT22;12727;49.934;8.656;2022-11-03T09:54:45;12.80;99.90
24560;DHT22;12727;49.934;8.656;2022-11-03T09:57:14;12.90;99.90
24560;DHT22;12727;49.934;8.656;2022-11-03T09:59:43;13.00;99.90
24560;DHT22;12727;49.934;8.656;2022-11-03T10:04:45;12.90;99.90
24560;DHT22;12727;49.934;8.656;2022-11-03T10:07:10;13.10;99.90
24560;DHT22;12727;49.934;8.656;2022-11-03T10:09:38;13.30;99.90
24560;DHT22;12727;49.934;8.656;2022-11-03T10:12:08;13.30;99.90
24560;DHT22;12727;49.934;8.656;2022-11-03T10:14:33;13.10;99.90
24560;DHT22;12727;49.934;8.656;2022-11-03T10:16:59;13.20;99.90
24560;DHT22;12727;49.934;8.656;2022-11-03T10:19:25;13.30;99.90
24560;DHT22;12727;49.934;8.656;2022-11-03T10:21:51;13.30;99.90
24560;DHT22;12727;49.934;8.656;2022-11-03T10:24:17;13.30;99.90
24560;DHT22;12727;49.934;8.656;2022-11-03T10:26:45;13.40;99.90
24560;DHT22;12727;49.934;8.656;2022-11-03T10:29:22;13.50;99.90
24560;DHT22;12727;49.934;8.656;2022-11-03T10:31:54;14.00;99.90
24560;DHT22;12727;49.934;8.656;2022-11-03T10:34:24;14.10;99.90
24560;DHT22;12727;49.934;8.656;2022-11-03T10:37:09;13.90;99.90
24560;DHT22;12727;49.934;8.656;2022-11-03T10:39:36;14.10;99.90
24560;DHT22;12727;49.934;8.656;2022-11-03T10:42:02;14.60;99.90
24560;DHT22;12727;49.934;8.656;2022-11-03T10:44:28;14.70;99.90
24560;DHT22;12727;49.934;8.656;2022-11-03T10:47:04;14.70;99.90
24560;DHT22;12727;49.934;8.656;2022-11-03T10:49:32;14.60;99.90
24560;DHT22;12727;49.934;8.656;2022-11-03T10:52:14;14.70;99.90
24560;DHT22;12727;49.934;8.656;2022-11-03T10:54:42;14.90;99.90
24560;DHT22;12727;49.934;8.656;2022-11-03T10:57:08;15.00;99.90
24560;DHT22;12727;49.934;8.656;2022-11-03T10:59:36;14.90;99.90
24560;DHT22;12727;49.934;8.656;2022-11-03T11:02:09;14.60;99.90
24560;DHT22;12727;49.934;8.656;2022-11-03T11:04:37;14.30;99.90
24560;DHT22;12727;49.934;8.656;2022-11-03T11:07:14;13.80;99.90
24560;DHT22;12727;49.934;8.656;2022-11-03T11:09:42;13.60;99.90
24560;DHT22;12727;49.934;8.656;2022-11-03T11:12:16;13.40;99.90
24560;DHT22;12727;49.934;8.656;2022-11-03T11:14:55;13.30;99.90
24560;DHT22;12727;49.934;8.656;2022-11-03T11:22:54;13.30;99.90
24560;DHT22;12727;49.934;8.656;2022-11-03T11:28:25;13.00;99.90
24560;DHT22;12727;49.934;8.656;2022-11-03T11:30:55;13.00;99.90
24560;DHT22;12727;49.934;8.656;2022-11-03T11:33:23;13.20;99.90
24560;DHT22;12727;49.934;8.656;2022-11-03T11:38:51;13.20;99.90
24560;DHT22;12727;49.934;8.656;2022-11-03T11:41:20;13.10;99.90
24560;DHT22;12727;49.934;8.656;2022-11-03T11:43:45;13.00;99.90
24560;DHT22;12727;49.934;8.656;2022-11-03T11:46:39;12.90;99.90
24560;DHT22;12727;49.934;8.656;2022-11-03T11:51:35;12.80;99.90
24560;DHT22;12727;49.934;8.656;2022-11-03T11:54:15;12.90;99.90
24560;DHT22;12727;49.934;8.656;2022-11-03T11:56:45;12.80;99.90
24560;DHT22;12727;49.934;8.656;2022-11-03T11:59:16;12.80;99.90
24560;DHT22;12727;49.934;8.656;2022-11-03T12:01:43;12.90;99.90
24560;DHT22;12727;49.934;8.656;2022-11-03T12:04:18;12.90;99.90
24560;DHT22;12727;49.934;8.656;2022-11-03T12:06:44;13.00;99.90
24560;DHT22;12727;49.934;8.656;2022-11-03T12:09:22;12.90;99.90
24560;DHT22;12727;49.934;8.656;2022-11-03T12:11:50;12.90;99.90
24560;DHT22;12727;49.934;8.656;2022-11-03T12:14:38;12.90;99.90
24560;DHT22;12727;49.934;8.656;2022-11-03T12:19:49;12.80;99.90
24560;DHT22;12727;49.934;8.656;2022-11-03T12:29:56;12.90;99.90
24560;DHT22;12727;49.934;8.656;2022-11-03T12:32:23;12.80;99.90
24560;DHT22;12727;49.934;8.656;2022-11-03T12:34:48;12.90;99.90
24560;DHT22;12727;49.934;8.656;2022-11-03T12:37:14;12.80;99.90
24560;DHT22;12727;49.934;8.656;2022-11-03T12:39:40;12.80;99.90
24560;DHT22;12727;49.934;8.656;2022-11-03T12:42:06;12.80;99.90
24560;DHT22;12727;49.934;8.656;2022-11-03T12:44:32;12.90;99.90
24560;DHT22;12727;49.934;8.656;2022-11-03T12:46:58;13.00;99.90
24560;DHT22;12727;49.934;8.656;2022-11-03T12:49:24;13.10;99.90
24560;DHT22;12727;49.934;8.656;2022-11-03T12:51:50;13.10;99.90
24560;DHT22;12727;49.934;8.656;2022-11-03T12:54:15;13.20;99.90
24560;DHT22;12727;49.934;8.656;2022-11-03T12:56:41;13.30;99.90
24560;DHT22;12727;49.934;8.656;2022-11-03T12:59:07;13.30;99.90
24560;DHT22;12727;49.934;8.656;2022-11-03T13:01:33;13.30;99.90
24560;DHT22;12727;49.934;8.656;2022-11-03T13:03:58;13.50;99.90
24560;DHT22;12727;49.934;8.656;2022-11-03T13:06:24;13.60;99.90
24560;DHT22;12727;49.934;8.656;2022-11-03T13:08:51;13.50;99.90
24560;DHT22;12727;49.934;8.656;2022-11-03T13:11:17;13.40;99.90
24560;DHT22;12727;49.934;8.656;2022-11-03T13:14:04;13.20;99.90
24560;DHT22;12727;49.934;8.656;2022-11-03T13:16:30;13.10;99.90
24560;DHT22;12727;49.934;8.656;2022-11-03T13:18:56;13.10;99.90
24560;DHT22;12727;49.934;8.656;2022-11-03T13:21:21;13.20;99.90
24560;DHT22;12727;49.934;8.656;2022-11-03T13:23:47;13.10;99.90
24560;DHT22;12727;49.934;8.656;2022-11-03T13:26:13;13.10;99.90
24560;DHT22;12727;49.934;8.656;2022-11-03T13:28:38;13.00;99.90
24560;DHT22;12727;49.934;8.656;2022-11-03T13:31:04;13.00;99.90
24560;DHT22;12727;49.934;8.656;2022-11-03T13:33:30;13.10;99.90
24560;DHT22;12727;49.934;8.656;2022-11-03T13:35:56;13.20;99.90
24560;DHT22;12727;49.934;8.656;2022-11-03T13:38:21;13.10;99.90
24560;DHT22;12727;49.934;8.656;2022-11-03T13:40:47;13.10;99.90
24560;DHT22;12727;49.934;8.656;2022-11-03T13:43:12;13.20;99.90
24560;DHT22;12727;49.934;8.656;2022-11-03T13:45:38;13.10;99.90
24560;DHT22;12727;49.934;8.656;2022-11-03T13:48:04;13.10;99.90
24560;DHT22;12727;49.934;8.656;2022-11-03T13:50:29;13.10;99.90
24560;DHT22;12727;49.934;8.656;2022-11-03T13:52:55;13.10;99.90
24560;DHT22;12727;49.934;8.656;2022-11-03T13:55:21;13.00;99.90
24560;DHT22;12727;49.934;8.656;2022-11-03T13:57:47;13.10;99.90
24560;DHT22;12727;49.934;8.656;2022-11-03T14:00:13;13.10;99.90
24560;DHT22;12727;49.934;8.656;2022-11-03T14:02:41;13.30;99.90
24560;DHT22;12727;49.934;8.656;2022-11-03T14:05:07;13.30;99.90
24560;DHT22;12727;49.934;8.656;2022-11-03T14:07:34;13.20;99.90
24560;DHT22;12727;49.934;8.656;2022-11-03T14:09:59;13.10;99.90
24560;DHT22;12727;49.934;8.656;2022-11-03T14:12:25;13.00;99.90
24560;DHT22;12727;49.934;8.656;2022-11-03T14:14:58;13.00;99.90
24560;DHT22;12727;49.934;8.656;2022-11-03T14:17:24;13.10;99.90
24560;DHT22;12727;49.934;8.656;2022-11-03T14:19:50;13.10;99.90
24560;DHT22;12727;49.934;8.656;2022-11-03T14:22:16;13.20;99.90
24560;DHT22;12727;49.934;8.656;2022-11-03T14:24:42;13.20;99.90
24560;DHT22;12727;49.934;8.656;2022-11-03T14:27:07;13.30;99.90
24560;DHT22;12727;49.934;8.656;2022-11-03T14:29:33;13.20;99.90
24560;DHT22;12727;49.934;8.656;2022-11-03T14:31:59;13.10;99.90
24560;DHT22;12727;49.934;8.656;2022-11-03T14:34:24;13.20;99.90
24560;DHT22;12727;49.934;8.656;2022-11-03T14:36:50;13.20;99.90
24560;DHT22;12727;49.934;8.656;2022-11-03T14:39:16;12.90;99.90
24560;DHT22;12727;49.934;8.656;2022-11-03T14:41:41;13.00;99.90
24560;DHT22;12727;49.934;8.656;2022-11-03T14:44:25;13.10;99.90
24560;DHT22;12727;49.934;8.656;2022-11-03T14:46:51;13.10;99.90
24560;DHT22;12727;49.934;8.656;2022-11-03T14:49:16;13.10;99.90
24560;DHT22;12727;49.934;8.656;2022-11-03T14:51:42;13.10;99.90
24560;DHT22;12727;49.934;8.656;2022-11-03T14:54:08;13.10;99.90
24560;DHT22;12727;49.934;8.656;2022-11-03T14:56:34;13.10;99.90
24560;DHT22;12727;49.934;8.656;2022-11-03T14:58:59;13.10;99.90
24560;DHT22;12727;49.934;8.656;2022-11-03T15:01:25;13.10;99.90
24560;DHT22;12727;49.934;8.656;2022-11-03T15:03:50;13.10;99.90
24560;DHT22;12727;49.934;8.656;2022-11-03T15:06:16;13.00;99.90
24560;DHT22;12727;49.934;8.656;2022-11-03T15:08:42;12.90;99.90
24560;DHT22;12727;49.934;8.656;2022-11-03T15:11:08;12.90;99.90
24560;DHT22;12727;49.934;8.656;2022-11-03T15:13:36;12.80;99.90
24560;DHT22;12727;49.934;8.656;2022-11-03T15:18:43;12.80;99.90
24560;DHT22;12727;49.934;8.656;2022-11-03T15:21:09;12.90;99.90
24560;DHT22;12727;49.934;8.656;2022-11-03T15:23:35;13.00;99.90
24560;DHT22;12727;49.934;8.656;2022-11-03T15:26:01;13.00;99.90
24560;DHT22;12727;49.934;8.656;2022-11-03T15:28:26;12.90;99.90
24560;DHT22;12727;49.934;8.656;2022-11-03T15:30:53;12.90;99.90
24560;DHT22;12727;49.934;8.656;2022-11-03T15:33:23;12.90;99.90
24560;DHT22;12727;49.934;8.656;2022-11-03T15:35:52;12.80;99.90
24560;DHT22;12727;49.934;8.656;2022-11-03T15:38:17;12.80;99.90
24560;DHT22;12727;49.934;8.656;2022-11-03T15:40:43;12.70;99.90
24560;DHT22;12727;49.934;8.656;2022-11-03T15:43:11;12.70;99.90
24560;DHT22;12727;49.934;8.656;2022-11-03T15:45:37;12.70;99.90
24560;DHT22;12727;49.934;8.656;2022-11-03T15:48:05;12.60;99.90
24560;DHT22;12727;49.934;8.656;2022-11-03T15:50:31;12.60;99.90
24560;DHT22;12727;49.934;8.656;2022-11-03T15:52:57;12.60;99.90
24560;DHT22;12727;49.934;8.656;2022-11-03T15:55:22;12.50;99.90
24560;DHT22;12727;49.934;8.656;2022-11-03T15:57:48;12.50;99.90
24560;DHT22;12727;49.934;8.656;2022-11-03T16:00:15;12.60;99.90
24560;DHT22;12727;49.934;8.656;2022-11-03T16:02:40;12.70;99.90
24560;DHT22;12727;49.934;8.656;2022-11-03T16:05:07;12.60;99.90
24560;DHT22;12727;49.934;8.656;2022-11-03T16:07:32;12.60;99.90
24560;DHT22;12727;49.934;8.656;2022-11-03T16:09:58;12.50;99.90
24560;DHT22;12727;49.934;8.656;2022-11-03T16:12:24;12.60;99.90
24560;DHT22;12727;49.934;8.656;2022-11-03T16:14:50;12.50;99.90
24560;DHT22;12727;49.934;8.656;2022-11-03T16:17:16;12.40;99.90
24560;DHT22;12727;49.934;8.656;2022-11-03T16:19:42;12.40;99.90
24560;DHT22;12727;49.934;8.656;2022-11-03T16:22:08;12.40;99.90
24560;DHT22;12727;49.934;8.656;2022-11-03T16:24:33;12.40;99.90
24560;DHT22;12727;49.934;8.656;2022-11-03T16:27:00;12.30;99.90
24560;DHT22;12727;49.934;8.656;2022-11-03T16:29:25;12.20;99.90
24560;DHT22;12727;49.934;8.656;2022-11-03T16:31:51;12.20;99.90
24560;DHT22;12727;49.934;8.656;2022-11-03T16:34:16;12.00;99.90
24560;DHT22;12727;49.934;8.656;2022-11-03T16:36:42;12.00;99.90
24560;DHT22;12727;49.934;8.656;2022-11-03T16:39:08;11.90;99.90
24560;DHT22;12727;49.934;8.656;2022-11-03T16:41:35;11.90;99.90
24560;DHT22;12727;49.934;8.656;2022-11-03T16:44:01;11.90;99.90
24560;DHT22;12727;49.934;8.656;2022-11-03T16:46:26;11.80;99.90
24560;DHT22;12727;49.934;8.656;2022-11-03T16:48:52;11.90;99.90
24560;DHT22;12727;49.934;8.656;2022-11-03T16:51:18;11.90;99.90